createdAt,value
2017-09-20T00:01:46.823Z,53.70
2017-09-20T00:04:14.302Z,45.20
2017-09-20T00:06:41.786Z,49.23
2017-09-20T00:09:09.640Z,48.70
2017-09-20T00:11:37.111Z,48.10
2017-09-20T00:14:04.620Z,50.80
2017-09-20T00:16:32.100Z,39.50
2017-09-20T00:18:59.572Z,53.50
2017-09-20T00:21:27.431Z,44.20
2017-09-20T00:23:54.904Z,51.30
2017-09-20T00:26:22.375Z,46.20
2017-09-20T00:28:49.905Z,50.50
2017-09-20T00:31:17.857Z,57.37
2017-09-20T00:33:45.331Z,51.73
2017-09-20T00:36:12.794Z,46.10
2017-09-20T00:38:40.655Z,50.67
2017-09-20T00:41:08.132Z,49.10
2017-09-20T00:43:35.595Z,58.60
2017-09-20T00:46:03.071Z,53.13
2017-09-20T00:48:30.537Z,47.40
2017-09-20T00:50:58.026Z,50.40
2017-09-20T00:53:25.487Z,52.53
2017-09-20T00:55:53.001Z,54.37
2017-09-20T00:58:20.463Z,53.47
2017-09-20T01:00:48.280Z,56.37
2017-09-20T01:03:15.843Z,62.40
2017-09-20T01:05:43.404Z,56.67
2017-09-20T01:08:10.875Z,68.63
2017-09-20T01:10:38.422Z,68.57
2017-09-20T01:13:05.979Z,54.83
2017-09-20T01:15:33.451Z,55.83
2017-09-20T01:18:01.565Z,59.93
2017-09-20T01:20:41.167Z,58.60
2017-09-20T01:26:10.558Z,65.77
2017-09-20T01:28:38.323Z,59.40
2017-09-20T01:31:05.806Z,70.00
2017-09-20T01:33:33.278Z,66.47
2017-09-20T01:36:00.804Z,66.60
2017-09-20T01:38:28.259Z,71.50
2017-09-20T01:40:55.751Z,69.00
2017-09-20T01:43:23.225Z,72.17
2017-09-20T01:45:50.703Z,73.97
2017-09-20T01:48:18.166Z,79.63
2017-09-20T01:50:45.906Z,73.70
2017-09-20T01:53:13.409Z,74.53
2017-09-20T01:55:40.873Z,94.53
2017-09-20T01:58:08.361Z,79.53
2017-09-20T02:00:35.825Z,79.13
2017-09-20T02:03:03.669Z,79.03
2017-09-20T02:05:31.132Z,70.60
2017-09-20T02:07:58.594Z,78.03
2017-09-20T02:10:26.071Z,67.40
2017-09-20T02:12:53.586Z,75.00
2017-09-20T02:15:21.141Z,72.53
2017-09-20T02:17:48.702Z,81.07
2017-09-20T02:20:16.466Z,72.40
2017-09-20T02:22:43.939Z,71.53
2017-09-20T02:25:11.430Z,69.23
2017-09-20T02:27:38.910Z,70.87
2017-09-20T02:30:06.396Z,70.10
2017-09-20T02:32:33.876Z,61.20
2017-09-20T02:35:01.387Z,74.40
2017-09-20T02:37:29.177Z,68.97
2017-09-20T02:39:56.734Z,73.00
2017-09-20T02:42:24.192Z,60.67
2017-09-20T02:44:51.682Z,63.47
2017-09-20T02:47:19.223Z,66.73
2017-09-20T02:49:46.697Z,74.70
2017-09-20T02:52:14.177Z,71.20
2017-09-20T02:54:41.664Z,75.90
2017-09-20T02:57:09.187Z,61.37
2017-09-20T02:59:37.053Z,61.03
2017-09-20T03:02:04.511Z,77.77
2017-09-20T03:04:31.974Z,68.60
2017-09-20T03:06:59.493Z,65.30
2017-09-20T03:09:26.961Z,62.87
2017-09-20T03:11:54.443Z,74.70
2017-09-20T03:14:21.907Z,70.77
2017-09-20T03:16:49.389Z,63.17
2017-09-20T03:19:16.871Z,74.03
2017-09-20T03:21:44.345Z,59.27
2017-09-20T03:24:11.839Z,56.77
2017-09-20T03:26:39.309Z,68.20
2017-09-20T03:29:06.802Z,62.40
2017-09-20T03:31:34.258Z,60.87
2017-09-20T03:34:01.737Z,70.07
2017-09-20T03:36:29.223Z,70.18
2017-09-20T03:38:57.076Z,70.37
2017-09-20T03:41:24.546Z,60.63
2017-09-20T03:43:52.021Z,66.00
2017-09-20T03:46:19.492Z,70.10
2017-09-20T03:48:47.061Z,67.20
2017-09-20T03:51:14.555Z,67.27
2017-09-20T03:53:42.033Z,57.07
2017-09-20T03:56:09.886Z,58.70
2017-09-20T03:58:37.362Z,68.10
2017-09-20T04:01:04.831Z,73.10
2017-09-20T04:03:32.330Z,73.22
2017-09-20T04:05:59.813Z,68.10
2017-09-20T04:08:27.300Z,63.10
2017-09-20T04:10:54.772Z,67.53
2017-09-20T04:13:22.621Z,65.37
2017-09-20T04:15:50.102Z,67.37
2017-09-20T04:18:17.588Z,65.33
2017-09-20T04:20:45.068Z,61.67
2017-09-20T04:23:12.529Z,55.20
2017-09-20T04:25:40.006Z,61.37
2017-09-20T04:28:07.531Z,56.13
2017-09-20T04:30:35.023Z,61.80
2017-09-20T04:33:02.526Z,53.43
2017-09-20T04:35:30.290Z,53.70
2017-09-20T04:37:57.791Z,59.47
2017-09-20T04:40:25.268Z,56.97
2017-09-20T04:42:52.744Z,62.33
2017-09-20T04:45:20.211Z,53.63
2017-09-20T04:47:47.696Z,55.83
2017-09-20T04:50:15.159Z,56.87
2017-09-20T04:52:43.097Z,50.90
2017-09-20T04:55:10.555Z,53.60
2017-09-20T04:57:38.030Z,49.93
2017-09-20T05:00:05.515Z,51.13
2017-09-20T05:02:33.004Z,54.77
2017-09-20T05:05:00.503Z,55.50
2017-09-20T05:07:28.027Z,52.40
2017-09-20T05:09:55.859Z,52.90
2017-09-20T05:12:23.340Z,50.50
2017-09-20T05:14:50.808Z,55.67
2017-09-20T05:17:18.295Z,57.17
2017-09-20T05:19:45.810Z,46.07
2017-09-20T05:22:13.619Z,40.13
2017-09-20T05:24:41.091Z,42.53
2017-09-20T05:27:08.579Z,56.50
2017-09-20T05:29:36.060Z,46.73
2017-09-20T05:32:03.518Z,49.73
2017-09-20T05:34:31.002Z,41.53
2017-09-20T05:36:58.523Z,29.17
2017-09-20T05:39:26.011Z,34.93
2017-09-20T05:41:53.516Z,28.40
2017-09-20T05:44:20.979Z,32.10
2017-09-20T05:46:48.834Z,40.33
2017-09-20T05:49:16.315Z,27.43
2017-09-20T05:51:43.866Z,32.77
2017-09-20T05:54:11.348Z,40.50
2017-09-20T05:56:38.815Z,48.80
2017-09-20T05:59:06.291Z,49.20
2017-09-20T06:01:33.846Z,32.00
2017-09-20T06:04:01.332Z,44.87
2017-09-20T06:06:28.793Z,39.17
2017-09-20T06:08:56.290Z,39.90
2017-09-20T06:11:23.777Z,41.87
2017-09-20T06:13:51.555Z,46.03
2017-09-20T06:16:19.052Z,45.57
2017-09-20T06:18:46.527Z,44.97
2017-09-20T06:21:14.006Z,51.07
2017-09-20T06:23:41.480Z,43.13
2017-09-20T06:26:08.957Z,44.57
2017-09-20T06:28:36.419Z,38.80
2017-09-20T06:31:03.977Z,40.83
2017-09-20T06:33:31.449Z,42.33
2017-09-20T06:35:59.281Z,38.63
2017-09-20T06:38:26.748Z,36.37
2017-09-20T06:40:54.250Z,32.90
2017-09-20T06:43:21.746Z,26.83
2017-09-20T06:45:49.229Z,28.27
2017-09-20T06:48:16.720Z,30.30
2017-09-20T06:50:44.178Z,17.10
2017-09-20T06:53:11.737Z,41.93
2017-09-20T06:55:39.247Z,46.00
2017-09-20T06:58:06.745Z,71.00
2017-09-20T07:00:34.222Z,41.80
2017-09-20T07:03:02.165Z,41.43
2017-09-20T07:05:29.632Z,26.60
2017-09-20T07:07:57.110Z,37.50
2017-09-20T07:10:24.617Z,41.37
2017-09-20T07:12:52.109Z,39.07
2017-09-20T07:15:19.590Z,36.70
2017-09-20T07:17:47.080Z,38.27
2017-09-20T07:20:14.951Z,33.50
2017-09-20T07:22:42.431Z,44.53
2017-09-20T07:25:09.885Z,34.87
2017-09-20T07:27:37.362Z,34.53
2017-09-20T07:30:04.872Z,38.20
2017-09-20T07:32:32.372Z,33.77
2017-09-20T07:34:59.856Z,31.50
2017-09-20T07:37:27.348Z,36.60
2017-09-20T07:39:54.908Z,39.60
2017-09-20T07:42:22.493Z,36.20
2017-09-20T07:44:49.971Z,31.10
2017-09-20T07:47:17.786Z,38.87
2017-09-20T07:49:45.337Z,28.67
2017-09-20T07:52:12.809Z,32.60
2017-09-20T07:54:40.304Z,31.27
2017-09-20T07:57:07.791Z,33.43
2017-09-20T07:59:35.626Z,27.00
2017-09-20T08:02:03.111Z,32.17
2017-09-20T08:04:30.593Z,34.07
2017-09-20T08:06:58.417Z,30.70
2017-09-20T08:09:25.901Z,35.07
2017-09-20T08:11:53.391Z,27.53
2017-09-20T08:14:20.901Z,30.07
2017-09-20T08:16:48.382Z,33.80
2017-09-20T08:19:16.190Z,34.20
2017-09-20T08:21:43.673Z,35.30
2017-09-20T08:24:11.126Z,37.23
2017-09-20T08:26:38.613Z,32.33
2017-09-20T08:29:06.105Z,35.73
2017-09-20T08:31:33.589Z,32.07
2017-09-20T08:34:10.115Z,31.37
2017-09-20T08:36:38.485Z,33.37
2017-09-20T08:39:05.947Z,27.70
2017-09-20T08:41:33.472Z,21.73
2017-09-20T08:44:00.980Z,25.73
2017-09-20T08:46:28.465Z,30.17
2017-09-20T08:48:55.962Z,32.80
2017-09-20T08:51:23.449Z,27.00
2017-09-20T08:53:50.955Z,34.97
2017-09-20T08:56:18.439Z,33.43
2017-09-20T08:58:46.247Z,33.70
2017-09-20T09:01:13.737Z,33.30
2017-09-20T09:03:41.210Z,29.47
2017-09-20T09:06:08.705Z,32.33
2017-09-20T09:08:36.178Z,31.67
2017-09-20T09:11:03.656Z,29.00
2017-09-20T09:13:31.133Z,36.27
2017-09-20T09:15:58.603Z,31.93
2017-09-20T09:18:26.626Z,32.13
2017-09-20T09:20:54.137Z,34.73
2017-09-20T09:23:21.645Z,32.07
2017-09-20T09:25:49.141Z,33.77
2017-09-20T09:28:16.654Z,31.23
2017-09-20T09:30:44.120Z,31.10
2017-09-20T09:33:11.965Z,30.63
2017-09-20T09:35:39.460Z,29.23
2017-09-20T09:38:06.944Z,34.57
2017-09-20T09:40:34.419Z,36.23
2017-09-20T09:43:01.874Z,24.67
2017-09-20T09:45:29.681Z,33.03
2017-09-20T09:47:57.157Z,25.00
2017-09-20T09:50:24.628Z,26.20
2017-09-20T09:52:52.138Z,23.57
2017-09-20T09:55:19.647Z,29.77
2017-09-20T09:57:47.118Z,28.53
2017-09-20T10:00:14.569Z,22.53
2017-09-20T10:02:42.309Z,24.40
2017-09-20T10:05:09.785Z,17.47
2017-09-20T10:07:37.240Z,19.47
2017-09-20T10:10:04.730Z,27.23
2017-09-20T10:12:32.191Z,24.00
2017-09-20T10:14:59.678Z,28.77
2017-09-20T10:17:27.167Z,29.10
2017-09-20T10:19:54.657Z,32.37
2017-09-20T10:22:22.130Z,23.83
2017-09-20T10:24:49.657Z,26.83
2017-09-20T10:27:18.042Z,25.07
2017-09-20T10:29:45.527Z,28.77
2017-09-20T10:32:13.014Z,34.10
2017-09-20T10:34:40.854Z,29.80
2017-09-20T10:37:08.396Z,20.43
2017-09-20T10:39:35.873Z,25.80
2017-09-20T10:42:03.356Z,22.83
2017-09-20T10:44:30.814Z,24.40
2017-09-20T10:46:58.293Z,25.33
2017-09-20T10:49:25.793Z,23.60
2017-09-20T10:51:53.675Z,22.43
2017-09-20T10:54:21.145Z,33.73
2017-09-20T10:56:48.626Z,21.90
2017-09-20T10:59:16.113Z,24.40
2017-09-20T11:01:44.301Z,25.90
2017-09-20T11:04:12.091Z,31.13
2017-09-20T11:06:39.572Z,24.63
2017-09-20T11:09:07.057Z,21.53
2017-09-20T11:11:34.598Z,20.03
2017-09-20T11:14:02.076Z,20.00
2017-09-20T11:16:29.612Z,18.33
2017-09-20T11:18:57.095Z,18.80
2017-09-20T11:21:24.906Z,15.93
2017-09-20T11:23:52.405Z,19.67
2017-09-20T11:26:19.920Z,13.30
2017-09-20T11:28:47.403Z,17.85
2017-09-20T11:31:14.920Z,12.40
2017-09-20T11:33:42.492Z,17.33
2017-09-20T11:36:09.972Z,11.77
2017-09-20T11:38:37.483Z,12.73
2017-09-20T11:41:04.964Z,14.80
2017-09-20T11:43:32.468Z,16.73
2017-09-20T11:45:59.934Z,15.10
2017-09-20T11:48:27.746Z,14.97
2017-09-20T11:50:55.214Z,15.73
2017-09-20T11:53:22.752Z,11.97
2017-09-20T11:55:50.561Z,8.23
2017-09-20T11:58:18.068Z,9.43
2017-09-20T12:00:45.553Z,14.07
2017-09-20T12:03:13.034Z,10.73
2017-09-20T12:05:40.796Z,8.63
2017-09-20T12:08:08.267Z,14.70
2017-09-20T12:10:35.717Z,15.57
2017-09-20T12:13:03.199Z,12.07
2017-09-20T12:15:30.664Z,8.90
2017-09-20T12:17:58.152Z,11.53
2017-09-20T12:20:25.635Z,11.83
2017-09-20T12:22:53.114Z,8.97
2017-09-20T12:25:20.588Z,8.27
2017-09-20T12:27:48.066Z,17.43
2017-09-20T12:30:15.532Z,8.53
2017-09-20T12:32:43.033Z,12.20
2017-09-20T12:35:10.489Z,10.27
2017-09-20T12:37:38.322Z,12.80
2017-09-20T12:40:05.784Z,12.40
2017-09-20T12:42:33.245Z,9.03
2017-09-20T12:45:00.750Z,9.90
2017-09-20T12:47:28.213Z,5.60
2017-09-20T12:49:56.010Z,3.10
2017-09-20T12:52:23.477Z,6.10
2017-09-20T12:54:50.931Z,9.00
2017-09-20T12:57:18.415Z,13.40
2017-09-20T12:59:45.883Z,9.07
2017-09-20T13:02:13.347Z,9.30
2017-09-20T13:04:40.859Z,12.00
2017-09-20T13:07:08.340Z,12.47
2017-09-20T13:09:35.824Z,14.33
2017-09-20T13:12:04.296Z,15.33
2017-09-20T13:14:31.813Z,13.40
2017-09-20T13:16:59.288Z,12.70
2017-09-20T13:19:26.792Z,15.10
2017-09-20T13:21:55.129Z,13.70
2017-09-20T13:24:22.606Z,13.00
2017-09-20T13:26:50.096Z,12.53
2017-09-20T13:29:17.899Z,11.53
2017-09-20T13:31:45.383Z,11.57
2017-09-20T13:34:12.855Z,13.63
2017-09-20T13:36:40.346Z,13.03
2017-09-20T13:39:07.816Z,11.27
2017-09-20T13:41:35.315Z,12.30
2017-09-20T13:44:02.840Z,10.33
2017-09-20T13:46:30.318Z,12.40
2017-09-20T13:48:57.795Z,10.00
2017-09-20T13:51:25.547Z,12.03
2017-09-20T13:53:53.065Z,6.10
2017-09-20T13:56:20.641Z,7.63
2017-09-20T13:58:48.149Z,7.67
2017-09-20T14:01:15.625Z,5.47
2017-09-20T14:03:43.095Z,8.97
2017-09-20T14:06:10.562Z,12.10
2017-09-20T14:08:38.327Z,7.73
2017-09-20T14:11:05.804Z,6.27
2017-09-20T14:13:33.278Z,8.80
2017-09-20T14:16:00.760Z,8.70
2017-09-20T14:18:28.256Z,11.97
2017-09-20T14:20:55.736Z,11.70
2017-09-20T14:23:23.206Z,11.63
2017-09-20T14:25:50.986Z,12.10
2017-09-20T14:28:18.446Z,9.47
2017-09-20T14:30:45.942Z,9.83
2017-09-20T14:33:13.450Z,6.90
2017-09-20T14:35:40.912Z,7.83
2017-09-20T14:38:08.712Z,7.40
2017-09-20T14:40:36.227Z,8.20
2017-09-20T14:43:03.825Z,5.70
2017-09-20T14:45:31.618Z,7.33
2017-09-20T14:47:59.109Z,5.77
2017-09-20T14:50:26.589Z,5.67
2017-09-20T14:52:54.051Z,6.30
2017-09-20T14:55:21.538Z,6.10
2017-09-20T14:57:49.783Z,6.30
2017-09-20T15:00:17.580Z,6.17
2017-09-20T15:02:45.044Z,7.40
2017-09-20T15:05:12.512Z,10.60
2017-09-20T15:07:40.057Z,11.80
2017-09-20T15:10:07.517Z,12.70
2017-09-20T15:12:35.057Z,11.13
2017-09-20T15:15:02.524Z,10.87
2017-09-20T15:17:30.376Z,12.60
2017-09-20T15:19:57.860Z,8.37
2017-09-20T15:22:25.336Z,9.00
2017-09-20T15:24:52.839Z,12.43
2017-09-20T15:27:20.324Z,10.63
2017-09-20T15:29:48.094Z,14.93
2017-09-20T15:32:15.571Z,10.40
2017-09-20T15:34:43.052Z,15.57
2017-09-20T15:37:10.566Z,10.97
2017-09-20T15:39:38.102Z,10.47
2017-09-20T15:42:05.891Z,8.67
2017-09-20T15:44:33.448Z,11.60
2017-09-20T15:47:00.914Z,12.20
2017-09-20T15:49:28.448Z,11.53
2017-09-20T15:51:55.927Z,11.47
2017-09-20T15:54:23.391Z,13.47
2017-09-20T15:56:50.891Z,17.30
2017-09-20T15:59:18.377Z,15.00
2017-09-20T16:01:45.886Z,17.10
2017-09-20T16:04:13.827Z,23.40
2017-09-20T16:06:41.426Z,16.30
2017-09-20T16:09:08.940Z,16.80
2017-09-20T16:11:36.430Z,17.67
2017-09-20T16:14:03.913Z,12.43
2017-09-20T16:16:31.396Z,16.80
2017-09-20T16:18:58.868Z,20.00
2017-09-20T16:21:26.633Z,14.00
2017-09-20T16:23:54.333Z,20.27
2017-09-20T16:26:21.816Z,16.03
2017-09-20T16:28:49.299Z,12.37
2017-09-20T16:31:17.035Z,9.57
2017-09-20T16:33:44.552Z,12.50
2017-09-20T16:36:12.047Z,13.07
2017-09-20T16:38:39.798Z,16.20
2017-09-20T16:41:07.272Z,18.10
2017-09-20T16:43:34.760Z,13.80
2017-09-20T16:46:02.329Z,15.57
2017-09-20T16:48:29.780Z,19.23
2017-09-20T16:50:58.024Z,14.20
2017-09-20T16:53:25.533Z,21.00
2017-09-20T16:55:53.023Z,13.70
2017-09-20T16:58:20.505Z,16.43
2017-09-20T17:00:48.036Z,13.93
2017-09-20T17:03:15.512Z,18.00
2017-09-20T17:05:42.998Z,15.33
2017-09-20T17:08:10.779Z,18.63
2017-09-20T17:10:38.247Z,12.77
2017-09-20T17:13:05.717Z,15.37
2017-09-20T17:15:33.214Z,15.10
2017-09-20T17:18:00.695Z,17.00
2017-09-20T17:20:28.468Z,26.03
2017-09-20T17:22:55.941Z,13.03
2017-09-20T17:25:23.415Z,12.67
2017-09-20T17:27:50.913Z,19.13
2017-09-20T17:30:18.393Z,15.47
2017-09-20T17:32:46.170Z,12.10
2017-09-20T17:35:13.630Z,15.63
2017-09-20T17:37:41.119Z,18.10
2017-09-20T17:40:08.671Z,17.73
2017-09-20T17:42:36.124Z,13.13
2017-09-20T17:45:03.653Z,14.80
2017-09-20T17:47:31.126Z,11.63
2017-09-20T17:49:58.616Z,11.70
2017-09-20T17:52:26.097Z,15.67
2017-09-20T17:54:53.595Z,15.23
2017-09-20T17:57:21.072Z,16.17
2017-09-20T17:59:48.648Z,15.83
2017-09-20T18:02:16.110Z,17.97
2017-09-20T18:04:43.591Z,19.37
2017-09-20T18:07:11.076Z,14.30
2017-09-20T18:09:38.547Z,16.13
2017-09-20T18:12:06.060Z,17.20
2017-09-20T18:14:33.525Z,20.73
2017-09-20T18:17:01.052Z,23.23
2017-09-20T18:19:28.530Z,16.80
2017-09-20T18:21:56.009Z,19.07
2017-09-20T18:24:23.495Z,21.67
2017-09-20T18:26:51.363Z,17.77
2017-09-20T18:29:18.939Z,22.20
2017-09-20T18:31:46.454Z,18.10
2017-09-20T18:34:14.060Z,19.23
2017-09-20T18:36:41.561Z,18.67
2017-09-20T18:39:09.072Z,16.83
2017-09-20T18:41:36.578Z,19.37
2017-09-20T18:44:04.480Z,15.07
2017-09-20T18:46:32.089Z,16.33
2017-09-20T18:48:59.559Z,11.20
2017-09-20T18:51:27.064Z,16.03
2017-09-20T18:53:54.529Z,21.30
2017-09-20T18:56:22.043Z,17.33
2017-09-20T18:58:49.516Z,18.73
2017-09-20T19:01:17.028Z,20.80
2017-09-20T19:03:44.508Z,31.03
2017-09-20T19:06:12.327Z,19.03
2017-09-20T19:08:39.793Z,14.20
2017-09-20T19:11:07.281Z,19.77
2017-09-20T19:13:34.768Z,16.40
2017-09-20T19:16:02.279Z,14.30
2017-09-20T19:18:29.768Z,14.17
2017-09-20T19:20:57.255Z,16.40
2017-09-20T19:23:24.778Z,14.80
2017-09-20T19:25:52.271Z,16.63
2017-09-20T19:28:19.759Z,15.20
2017-09-20T19:30:47.235Z,16.17
2017-09-20T19:33:14.715Z,12.40
2017-09-20T19:35:42.226Z,12.97
2017-09-20T19:38:09.768Z,18.77
2017-09-20T19:40:38.090Z,13.80
2017-09-20T19:43:05.625Z,13.77
2017-09-20T19:45:33.113Z,23.20
2017-09-20T19:48:00.967Z,22.87
2017-09-20T19:50:28.515Z,16.47
2017-09-20T19:52:56.015Z,18.37
2017-09-20T19:55:23.587Z,15.93
2017-09-20T19:57:51.052Z,17.33
2017-09-20T20:00:18.842Z,18.70
2017-09-20T20:02:46.327Z,13.17
2017-09-20T20:05:13.792Z,12.83
2017-09-20T20:07:41.259Z,13.93
2017-09-20T20:10:08.721Z,19.90
2017-09-20T20:12:36.223Z,10.87
2017-09-20T20:15:03.701Z,11.60
2017-09-20T20:17:31.534Z,12.40
2017-09-20T20:19:59.049Z,9.60
2017-09-20T20:22:26.498Z,11.90
2017-09-20T20:24:54.109Z,16.33
2017-09-20T20:27:21.587Z,12.87
2017-09-20T20:29:49.717Z,10.03
2017-09-20T20:32:17.186Z,17.20
2017-09-20T20:34:44.676Z,11.07
2017-09-20T20:37:12.197Z,13.23
2017-09-20T20:39:39.992Z,8.80
2017-09-20T20:42:07.516Z,13.70
2017-09-20T20:44:34.985Z,9.73
2017-09-20T20:47:02.457Z,13.20
2017-09-20T20:49:29.961Z,12.67
2017-09-20T20:51:57.466Z,16.60
2017-09-20T20:54:25.042Z,10.73
2017-09-20T20:56:52.827Z,10.63
2017-09-20T20:59:20.309Z,12.50
2017-09-20T21:01:47.771Z,9.17
2017-09-20T21:04:15.246Z,10.13
2017-09-20T21:06:42.828Z,13.90
2017-09-20T21:09:10.350Z,11.60
2017-09-20T21:11:37.828Z,12.17
2017-09-20T21:14:05.628Z,10.27
2017-09-20T21:16:33.091Z,10.33
2017-09-20T21:19:00.565Z,11.33
2017-09-20T21:21:28.115Z,9.40
2017-09-20T21:23:55.589Z,8.43
2017-09-20T21:26:23.075Z,8.73
2017-09-20T21:28:50.544Z,16.13
2017-09-20T21:31:18.715Z,10.77
2017-09-20T21:33:46.171Z,11.93
2017-09-20T21:36:13.630Z,8.20
2017-09-20T21:38:41.104Z,23.93
2017-09-20T21:41:08.647Z,10.33
2017-09-20T21:43:36.409Z,11.90
2017-09-20T21:46:03.895Z,9.70
2017-09-20T21:48:31.439Z,13.33
2017-09-20T21:50:58.995Z,8.30
2017-09-20T21:53:26.489Z,11.43
2017-09-20T21:55:54.335Z,15.53
2017-09-20T21:58:21.824Z,9.30
2017-09-20T22:00:49.325Z,9.60
2017-09-20T22:03:16.937Z,9.13
2017-09-20T22:05:44.406Z,11.23
2017-09-20T22:08:11.898Z,12.33
2017-09-20T22:10:39.353Z,7.63
2017-09-20T22:13:06.853Z,13.37
2017-09-20T22:15:46.191Z,11.67
2017-09-20T22:18:25.599Z,8.93
2017-09-20T22:21:05.027Z,9.00
2017-09-20T22:23:44.416Z,8.40
2017-09-20T22:26:23.509Z,12.23
2017-09-20T22:28:50.979Z,10.20
2017-09-20T22:31:18.443Z,8.90
2017-09-20T22:33:46.293Z,6.90
2017-09-20T22:36:13.754Z,12.90
2017-09-20T22:38:41.218Z,9.57
2017-09-20T22:41:08.692Z,7.80
2017-09-20T22:43:36.150Z,9.93
2017-09-20T22:46:03.619Z,7.27
2017-09-20T22:48:31.075Z,7.27
2017-09-20T22:50:58.544Z,6.33
2017-09-20T22:53:25.995Z,4.90
2017-09-20T22:55:53.480Z,5.60
2017-09-20T22:58:20.955Z,5.60
2017-09-20T23:00:48.420Z,6.90
2017-09-20T23:03:15.886Z,3.83
2017-09-20T23:05:43.355Z,4.70
2017-09-20T23:08:10.819Z,7.83
2017-09-20T23:10:38.270Z,8.10
2017-09-20T23:13:06.099Z,16.20
2017-09-20T23:15:33.566Z,6.77
2017-09-20T23:18:01.024Z,6.93
2017-09-20T23:20:28.498Z,7.70
2017-09-20T23:22:55.967Z,6.40
2017-09-20T23:25:23.711Z,5.30
2017-09-20T23:27:51.177Z,12.23
2017-09-20T23:30:18.635Z,25.87
2017-09-20T23:32:46.117Z,22.53
2017-09-20T23:35:13.587Z,25.57
2017-09-20T23:37:41.332Z,25.47
2017-09-20T23:40:08.799Z,17.93
2017-09-20T23:42:36.279Z,14.70
2017-09-20T23:45:03.746Z,18.30
2017-09-20T23:47:31.209Z,16.00
2017-09-20T23:49:58.691Z,16.87
2017-09-20T23:52:26.153Z,18.57
2017-09-20T23:54:53.613Z,18.70
2017-09-20T23:57:21.099Z,22.60
2017-09-20T23:59:48.559Z,25.50
